Crackville, Louisiana
Current Conditions -  °F | °C
As of 4:35 AM on Monday 22 Dec 2014 (Local Time) from KOPL Reporting Station
Haze Haze  
Wind Chill: 51°   Ceiling: 400
Heat Index: 51°   Visibility: 1.7mi
Dew Point: 50°   Wind: 0mph
Humidity: 97%   Direction: NA
Pressure: 29.85"   Gusts: NA
Location:  30.9908°N, 92.0816°W
Report Text: KOPL 221035Z AUTO 00000KT 1 3/4SM BR OVC004 11/10 A2985 RMK AO2 T01050101
Loading
Personal Weather Stations






























Interactive Weather Map New forecast layout! Learn more

10-Day Weather Forecast

Advertisements
Track Severe Weather on mobile